To NAV CANADA Home Page Login to a new session Search on AWWS site Disclaimer Vers la page française équivalente Tips FAQ What's new on the site To the Forecasts and Observations / NOTAM section To "File a Flight Plan" website Publications and other links Update of the User's profile FIC Telephone Numbers My Weather Data Folder Route Weather Data Regional Weather Data Local Weather Data To the Forecasts and Observations / NOTAM section
Request Generated 10/19/2018 at 16:00:26 UTC . Weather information available at that time is displayed.

METAR/TAF

CORAL HARBOUR/NU    

METAR CYZS 191500Z 02006KT 12SM -SN FEW025 SCT040 OVC080 M08/M10 A2969 RMK SC1SC3AC4 SLP063=
METAR CYZS 191400Z 02006KT 15SM -SN FEW019 BKN030 OVC080 M09/M11 A2969 RMK SC2SC3AC3 SLP063=
METAR CYZS 191300Z 04002KT 15SM -SN FEW025 SCT080 OVC110 M09/M11 A2970 RMK SC1AC3AC4 SLP065=

TAF CYZS 191238Z 1913/2001 01008KT P6SM -SN SCT020 OVC070 TEMPO
1913/2001 3SM -SN BKN020 OVC050
RMK NXT FCST BY 191900Z=
Your time UTC time
Weather data provided by Environment Canada and NAV CANADA